createdAt,value
2023-05-21T00:00:20.565Z,174.47
2023-05-21T00:01:20.646Z,143.28
2023-05-21T00:02:20.768Z,148.36
2023-05-21T00:03:20.858Z,147.55
2023-05-21T00:04:20.817Z,134.62
2023-05-21T00:05:20.876Z,141.14
2023-05-21T00:06:21.167Z,133.12
2023-05-21T00:07:21.061Z,74.63
2023-05-21T00:08:21.098Z,90.74
2023-05-21T00:09:21.155Z,88.78
2023-05-21T00:10:21.549Z,74.15
2023-05-21T00:11:21.297Z,86.27
2023-05-21T00:12:21.332Z,74.90
2023-05-21T00:13:21.401Z,41.71
2023-05-21T00:14:21.468Z,32.74
2023-05-21T00:15:21.479Z,2.45
2023-05-21T00:16:21.600Z,3.33
2023-05-21T00:17:21.610Z,29.11
2023-05-21T00:18:21.618Z,34.39
2023-05-21T00:19:21.762Z,62.35
2023-05-21T00:20:21.755Z,45.03
2023-05-21T00:21:21.829Z,53.19
2023-05-21T00:22:21.900Z,58.67
2023-05-21T00:23:22.046Z,62.97
2023-05-21T00:24:22.036Z,77.93
2023-05-21T00:25:22.112Z,91.91
2023-05-21T00:26:22.209Z,84.02
2023-05-21T00:27:22.253Z,81.34
2023-05-21T00:28:22.317Z,87.75
2023-05-21T00:29:22.384Z,109.12
2023-05-21T00:30:22.429Z,132.76
2023-05-21T00:31:22.520Z,162.51
2023-05-21T00:32:22.593Z,204.16
2023-05-21T00:33:22.634Z,244.65
2023-05-21T00:34:22.698Z,254.40
2023-05-21T00:35:22.756Z,247.87
2023-05-21T00:36:22.762Z,266.72
2023-05-21T00:37:22.814Z,261.78
2023-05-21T00:38:22.874Z,250.00
2023-05-21T00:39:22.935Z,249.88
2023-05-21T00:40:22.982Z,250.68
2023-05-21T00:41:23.045Z,227.13
2023-05-21T00:42:23.085Z,208.34
2023-05-21T00:43:23.160Z,187.64
2023-05-21T00:44:23.253Z,173.20
2023-05-21T00:45:23.330Z,150.46
2023-05-21T00:46:23.489Z,143.98
2023-05-21T00:47:23.504Z,164.24
2023-05-21T00:48:23.514Z,182.54
2023-05-21T00:49:23.545Z,195.61
2023-05-21T00:50:23.553Z,209.66
2023-05-21T00:51:23.621Z,230.30
2023-05-21T00:52:23.679Z,253.08
2023-05-21T00:53:23.765Z,254.81
2023-05-21T00:54:23.830Z,243.95
2023-05-21T00:55:23.966Z,242.98
2023-05-21T00:56:23.918Z,231.52
2023-05-21T00:57:23.954Z,241.38
2023-05-21T00:58:24.004Z,236.14
2023-05-21T00:59:24.076Z,227.65
2023-05-21T01:00:24.134Z,227.70
2023-05-21T01:01:24.242Z,219.97
2023-05-21T01:02:24.546Z,194.70
2023-05-21T01:03:24.498Z,199.52
2023-05-21T01:04:24.266Z,219.66
2023-05-21T01:05:24.281Z,225.31
2023-05-21T01:06:24.307Z,236.65
2023-05-21T01:07:24.330Z,230.83
2023-05-21T01:08:24.356Z,234.78
2023-05-21T01:09:24.395Z,229.19
2023-05-21T01:10:24.388Z,230.39
2023-05-21T01:11:24.391Z,243.34
2023-05-21T01:12:24.442Z,249.46
2023-05-21T01:13:24.432Z,238.73
2023-05-21T01:14:24.497Z,234.40
2023-05-21T01:15:24.501Z,224.26
2023-05-21T01:16:24.570Z,225.32
2023-05-21T01:17:24.661Z,222.19
2023-05-21T01:18:24.588Z,235.09
2023-05-21T01:19:24.578Z,247.74
2023-05-21T01:20:24.577Z,215.03
2023-05-21T01:21:24.581Z,200.54
2023-05-21T01:22:24.629Z,169.62
2023-05-21T01:23:24.675Z,148.46
2023-05-21T01:24:24.676Z,145.92
2023-05-21T01:25:24.748Z,157.26
2023-05-21T01:26:24.726Z,165.69
2023-05-21T01:27:24.739Z,154.08
2023-05-21T01:28:24.735Z,157.00
2023-05-21T01:29:24.761Z,167.38
2023-05-21T01:30:24.789Z,180.52
2023-05-21T01:31:24.797Z,193.01
2023-05-21T01:32:24.870Z,198.87
2023-05-21T01:33:24.946Z,211.54
2023-05-21T01:34:24.911Z,232.02
2023-05-21T01:35:24.969Z,237.14
2023-05-21T01:36:25.018Z,251.68
2023-05-21T01:37:25.053Z,244.29
2023-05-21T01:38:25.054Z,234.97
2023-05-21T01:39:25.134Z,240.76
2023-05-21T01:40:25.156Z,242.06
2023-05-21T01:41:25.220Z,224.55
2023-05-21T01:42:25.302Z,201.61
2023-05-21T01:43:25.330Z,196.66
2023-05-21T01:44:25.416Z,223.25
2023-05-21T01:45:25.546Z,252.29
2023-05-21T01:46:25.521Z,250.00
2023-05-21T01:47:25.610Z,253.72
2023-05-21T01:48:25.645Z,242.44
2023-05-21T01:49:25.666Z,223.13
2023-05-21T01:50:25.778Z,209.60
2023-05-21T01:51:25.758Z,193.42
2023-05-21T01:52:25.883Z,201.91
2023-05-21T01:53:25.799Z,208.59
2023-05-21T01:54:25.865Z,208.88
2023-05-21T01:55:25.938Z,230.98
2023-05-21T01:56:25.994Z,255.74
2023-05-21T01:57:25.983Z,257.25
2023-05-21T01:58:26.014Z,263.56
2023-05-21T01:59:26.008Z,258.47
2023-05-21T02:00:26.026Z,258.57
2023-05-21T02:01:26.076Z,260.15
2023-05-21T02:02:26.104Z,266.05
2023-05-21T02:03:26.120Z,281.56
2023-05-21T02:04:26.120Z,284.70
2023-05-21T02:05:26.554Z,281.65
2023-05-21T02:06:26.056Z,262.67
2023-05-21T02:07:26.072Z,243.88
2023-05-21T02:08:26.090Z,220.81
2023-05-21T02:09:26.094Z,204.54
2023-05-21T02:10:26.124Z,198.94
2023-05-21T02:11:26.124Z,196.37
2023-05-21T02:12:26.149Z,191.56
2023-05-21T02:13:26.853Z,190.56
2023-05-21T02:14:26.218Z,193.74
2023-05-21T02:15:26.272Z,200.03
2023-05-21T02:16:26.420Z,201.15
2023-05-21T02:17:26.480Z,197.53
2023-05-21T02:18:26.447Z,197.36
2023-05-21T02:19:27.050Z,195.70
2023-05-21T02:20:26.510Z,194.23
2023-05-21T02:21:26.574Z,182.71
2023-05-21T02:22:26.615Z,167.14
2023-05-21T02:23:26.683Z,162.32
2023-05-21T02:24:26.698Z,145.05
2023-05-21T02:25:26.772Z,140.71
2023-05-21T02:26:26.840Z,145.12
2023-05-21T02:27:26.841Z,134.31
2023-05-21T02:28:26.864Z,132.04
2023-05-21T02:29:26.880Z,134.08
2023-05-21T02:30:26.963Z,143.96
2023-05-21T02:31:27.041Z,154.20
2023-05-21T02:32:27.193Z,146.40
2023-05-21T02:33:27.158Z,131.90
2023-05-21T02:34:27.365Z,119.36
2023-05-21T02:35:27.252Z,119.55
2023-05-21T02:36:27.321Z,124.67
2023-05-21T02:37:27.440Z,123.64
2023-05-21T02:38:27.488Z,126.25
2023-05-21T02:39:27.540Z,129.44
2023-05-21T02:40:27.625Z,127.13
2023-05-21T02:41:27.807Z,128.74
2023-05-21T02:42:27.756Z,137.19
2023-05-21T02:43:28.047Z,132.40
2023-05-21T02:44:27.823Z,137.22
2023-05-21T02:45:27.848Z,135.57
2023-05-21T02:46:27.985Z,129.78
2023-05-21T02:47:27.984Z,135.50
2023-05-21T02:48:28.010Z,144.05
2023-05-21T02:49:28.067Z,157.01
2023-05-21T02:50:28.139Z,158.02
2023-05-21T02:51:28.215Z,149.34
2023-05-21T02:52:28.276Z,150.85
2023-05-21T02:53:28.297Z,151.04
2023-05-21T02:54:28.312Z,151.55
2023-05-21T02:55:28.335Z,149.73
2023-05-21T02:56:28.360Z,143.31
2023-05-21T02:57:28.364Z,134.03
2023-05-21T02:58:28.367Z,125.92
2023-05-21T02:59:28.400Z,122.96
2023-05-21T03:00:28.436Z,120.58
2023-05-21T03:01:28.491Z,111.64
2023-05-21T03:02:28.532Z,93.73
2023-05-21T03:03:28.598Z,109.92
2023-05-21T03:04:28.520Z,118.91
2023-05-21T03:05:28.537Z,112.94
2023-05-21T03:06:28.540Z,121.59
2023-05-21T03:07:28.573Z,108.70
2023-05-21T03:08:28.570Z,113.44
2023-05-21T03:09:28.618Z,117.78
2023-05-21T03:10:28.667Z,128.47
2023-05-21T03:11:28.762Z,134.45
2023-05-21T03:12:28.833Z,137.50
2023-05-21T03:13:28.931Z,157.85
2023-05-21T03:14:28.946Z,161.73
2023-05-21T03:15:28.999Z,168.51
2023-05-21T03:16:29.121Z,174.82
2023-05-21T03:17:29.156Z,176.16
2023-05-21T03:18:29.164Z,180.14
2023-05-21T03:19:29.288Z,185.21
2023-05-21T03:20:29.311Z,189.75
2023-05-21T03:21:29.388Z,191.98
2023-05-21T03:22:29.447Z,188.09
2023-05-21T03:23:29.523Z,190.23
2023-05-21T03:24:29.563Z,189.60
2023-05-21T03:25:29.618Z,182.52
2023-05-21T03:26:29.708Z,173.05
2023-05-21T03:27:29.762Z,162.33
2023-05-21T03:28:29.841Z,167.35
2023-05-21T03:29:29.899Z,175.51
2023-05-21T03:30:29.968Z,184.45
2023-05-21T03:31:30.042Z,190.20
2023-05-21T03:32:30.061Z,196.35
2023-05-21T03:33:30.145Z,203.27
2023-05-21T03:34:30.207Z,211.54
2023-05-21T03:35:30.232Z,222.21
2023-05-21T03:36:30.355Z,226.05
2023-05-21T03:37:30.392Z,224.96
2023-05-21T03:38:30.441Z,229.29
2023-05-21T03:39:30.539Z,242.44
2023-05-21T03:40:30.571Z,255.54
2023-05-21T03:41:30.572Z,259.68
2023-05-21T03:42:30.648Z,255.97
2023-05-21T03:43:30.714Z,255.21
2023-05-21T03:44:30.794Z,252.63
2023-05-21T03:45:30.813Z,243.97
2023-05-21T03:46:30.952Z,240.39
2023-05-21T03:47:30.874Z,239.57
2023-05-21T03:48:30.939Z,234.81
2023-05-21T03:49:30.981Z,234.64
2023-05-21T03:50:31.023Z,235.47
2023-05-21T03:51:31.018Z,239.30
2023-05-21T03:52:31.095Z,236.22
2023-05-21T03:53:31.100Z,226.62
2023-05-21T03:54:31.150Z,221.18
2023-05-21T03:55:31.246Z,220.09
2023-05-21T03:56:31.258Z,224.74
2023-05-21T03:57:31.285Z,224.92
2023-05-21T03:58:31.359Z,225.45
2023-05-21T03:59:31.399Z,222.27
2023-05-21T04:00:31.449Z,224.78
2023-05-21T04:01:31.412Z,216.78
2023-05-21T04:02:31.527Z,218.45
2023-05-21T04:03:31.620Z,223.22
2023-05-21T04:04:31.547Z,210.67
2023-05-21T04:05:31.550Z,202.37
2023-05-21T04:06:31.559Z,209.65
2023-05-21T04:07:31.575Z,209.23
2023-05-21T04:08:31.641Z,212.03
2023-05-21T04:09:31.627Z,196.60
2023-05-21T04:10:31.677Z,159.66
2023-05-21T04:11:32.535Z,153.93
2023-05-21T04:12:31.681Z,149.97
2023-05-21T04:13:31.742Z,150.32
2023-05-21T04:14:32.551Z,156.69
2023-05-21T04:15:31.820Z,178.66
2023-05-21T04:16:31.905Z,191.11
2023-05-21T04:17:31.940Z,196.66
2023-05-21T04:18:31.941Z,196.37
2023-05-21T04:19:32.160Z,200.98
2023-05-21T04:20:32.544Z,232.60
2023-05-21T04:21:32.003Z,254.22
2023-05-21T04:22:32.033Z,252.16
2023-05-21T04:23:32.178Z,257.81
2023-05-21T04:24:32.061Z,235.79
2023-05-21T04:25:32.131Z,223.19
2023-05-21T04:26:32.096Z,211.32
2023-05-21T04:27:32.107Z,228.20
2023-05-21T04:28:32.118Z,223.66
2023-05-21T04:29:32.205Z,228.04
2023-05-21T04:30:32.226Z,232.53
2023-05-21T04:31:32.248Z,221.78
2023-05-21T04:32:32.232Z,206.77
2023-05-21T04:33:32.173Z,210.86
2023-05-21T04:34:32.142Z,208.21
2023-05-21T04:35:32.130Z,204.51
2023-05-21T04:36:32.119Z,211.22
2023-05-21T04:37:32.098Z,219.81
2023-05-21T04:38:33.103Z,221.28
2023-05-21T04:39:32.020Z,225.19
2023-05-21T04:40:32.047Z,211.23
2023-05-21T04:41:32.003Z,201.83
2023-05-21T04:42:32.026Z,197.77
2023-05-21T04:43:32.061Z,189.48
2023-05-21T04:44:32.175Z,184.01
2023-05-21T04:45:32.118Z,180.70
2023-05-21T04:46:32.147Z,184.12
2023-05-21T04:47:33.110Z,194.74
2023-05-21T04:48:32.193Z,223.70
2023-05-21T04:49:32.189Z,228.91
2023-05-21T04:50:32.229Z,237.74
2023-05-21T04:51:32.236Z,231.33
2023-05-21T04:52:32.261Z,220.69
2023-05-21T04:53:32.285Z,209.22
2023-05-21T04:54:32.314Z,205.34
2023-05-21T04:55:32.376Z,211.36
2023-05-21T04:56:32.398Z,215.25
2023-05-21T04:57:32.405Z,199.54
2023-05-21T04:58:32.392Z,194.08
2023-05-21T04:59:32.397Z,189.19
2023-05-21T05:00:32.489Z,168.02
2023-05-21T05:01:32.464Z,146.03
2023-05-21T05:02:32.536Z,118.59
2023-05-21T05:03:32.586Z,108.04
2023-05-21T05:04:32.541Z,98.86
2023-05-21T05:05:32.556Z,81.75
2023-05-21T05:06:32.583Z,49.60
2023-05-21T05:07:32.650Z,24.23
2023-05-21T05:08:32.680Z,23.22
2023-05-21T05:09:32.687Z,3.06
2023-05-21T05:10:32.705Z,10.38
2023-05-21T05:11:32.782Z,29.39
2023-05-21T05:12:32.790Z,33.18
2023-05-21T05:13:32.842Z,36.78
2023-05-21T05:14:32.887Z,28.71
2023-05-21T05:15:32.856Z,23.93
2023-05-21T05:16:32.989Z,26.08
2023-05-21T05:17:32.943Z,24.98
2023-05-21T05:18:32.929Z,17.83
2023-05-21T05:19:33.039Z,14.03
2023-05-21T05:20:32.963Z,0.00
2023-05-21T05:21:32.992Z,1.72
2023-05-21T05:22:33.038Z,12.87
2023-05-21T05:23:33.108Z,21.70
2023-05-21T05:24:33.110Z,25.54
2023-05-21T05:25:33.190Z,36.28
2023-05-21T05:26:33.208Z,38.98
2023-05-21T05:27:33.229Z,33.89
2023-05-21T05:28:33.315Z,44.96
2023-05-21T05:29:33.338Z,62.08
2023-05-21T05:30:33.372Z,75.72
2023-05-21T05:31:33.351Z,83.98
2023-05-21T05:32:33.428Z,86.43
2023-05-21T05:33:33.386Z,94.62
2023-05-21T05:34:33.407Z,108.55
2023-05-21T05:35:33.663Z,113.16
2023-05-21T05:36:33.442Z,108.03
2023-05-21T05:37:33.418Z,106.05
2023-05-21T05:38:33.374Z,107.81
2023-05-21T05:39:33.322Z,109.22
2023-05-21T05:40:33.321Z,105.71
2023-05-21T05:41:33.328Z,69.99
2023-05-21T05:42:33.303Z,65.45
2023-05-21T05:43:33.265Z,70.55
2023-05-21T05:44:33.234Z,79.69
2023-05-21T05:45:33.246Z,75.32
2023-05-21T05:46:33.297Z,79.67
2023-05-21T05:47:33.265Z,85.66
2023-05-21T05:48:33.217Z,79.82
2023-05-21T05:49:33.170Z,85.29
2023-05-21T05:50:33.191Z,73.46
2023-05-21T05:51:33.202Z,70.72
2023-05-21T05:52:33.188Z,60.99
2023-05-21T05:53:33.158Z,61.06
2023-05-21T05:54:33.159Z,31.28
2023-05-21T05:55:33.158Z,1.24
2023-05-21T05:56:33.153Z,0.00
2023-05-21T05:57:33.090Z,44.43
2023-05-21T05:58:33.086Z,53.16
2023-05-21T05:59:33.054Z,35.50
2023-05-21T06:00:33.089Z,0.00
2023-05-21T06:01:33.035Z,0.00
2023-05-21T06:02:33.222Z,0.00
2023-05-21T06:03:33.107Z,5.35
2023-05-21T06:04:33.031Z,2.62
2023-05-21T06:05:33.052Z,0.00
2023-05-21T06:06:33.043Z,0.00
2023-05-21T06:07:33.043Z,7.23
2023-05-21T06:08:36.029Z,13.09
2023-05-21T06:09:33.094Z,13.35
2023-05-21T06:10:33.082Z,16.04
2023-05-21T06:11:33.112Z,20.71
2023-05-21T06:12:33.041Z,28.27
2023-05-21T06:13:33.051Z,24.12
2023-05-21T06:14:33.025Z,4.39
2023-05-21T06:15:33.021Z,3.25
2023-05-21T06:16:33.038Z,7.80
2023-05-21T06:17:32.980Z,8.07
2023-05-21T06:18:32.920Z,10.74
2023-05-21T06:19:33.075Z,15.64
2023-05-21T06:20:32.884Z,29.49
2023-05-21T06:21:32.828Z,36.49
2023-05-21T06:22:32.815Z,36.63
2023-05-21T06:23:32.818Z,40.17
2023-05-21T06:24:32.760Z,42.59
2023-05-21T06:25:32.832Z,38.18
2023-05-21T06:26:32.662Z,62.70
2023-05-21T06:27:33.582Z,62.27
2023-05-21T06:28:32.631Z,60.87
2023-05-21T06:29:32.604Z,59.80
2023-05-21T06:30:32.555Z,52.60
2023-05-21T06:31:32.527Z,52.33
2023-05-21T06:32:32.515Z,59.01
2023-05-21T06:33:32.483Z,53.41
2023-05-21T06:34:32.406Z,55.72
2023-05-21T06:35:32.372Z,55.50
2023-05-21T06:36:32.367Z,60.55
2023-05-21T06:37:32.335Z,57.52
2023-05-21T06:38:32.307Z,51.04
2023-05-21T06:39:32.273Z,48.51
2023-05-21T06:40:32.237Z,52.73
2023-05-21T06:41:32.181Z,55.12
2023-05-21T06:42:32.136Z,45.88
2023-05-21T06:43:32.109Z,40.51
2023-05-21T06:44:32.088Z,44.44
2023-05-21T06:45:32.118Z,51.63
2023-05-21T06:46:32.104Z,63.52
2023-05-21T06:47:32.053Z,68.92
2023-05-21T06:48:31.930Z,63.66
2023-05-21T06:49:31.874Z,61.49
2023-05-21T06:50:31.867Z,73.85
2023-05-21T06:51:31.807Z,72.18
2023-05-21T06:52:31.815Z,76.09
2023-05-21T06:53:31.717Z,79.14
2023-05-21T06:54:31.674Z,75.13
2023-05-21T06:55:31.637Z,78.78
2023-05-21T06:56:31.570Z,73.65
2023-05-21T06:57:31.517Z,63.73
2023-05-21T06:58:31.502Z,57.17
2023-05-21T06:59:31.450Z,57.87
2023-05-21T07:00:31.422Z,54.74
2023-05-21T07:01:31.417Z,55.77
2023-05-21T07:02:31.435Z,66.00
2023-05-21T07:03:31.410Z,71.70
2023-05-21T07:04:31.228Z,78.98
2023-05-21T07:05:31.194Z,89.17
2023-05-21T07:06:31.133Z,105.44
2023-05-21T07:07:31.086Z,108.69
2023-05-21T07:08:31.033Z,103.06
2023-05-21T07:09:30.989Z,101.12
2023-05-21T07:10:30.927Z,94.59
2023-05-21T07:11:30.867Z,84.62
2023-05-21T07:12:30.818Z,84.52
2023-05-21T07:13:30.759Z,82.53
2023-05-21T07:14:30.720Z,70.70
2023-05-21T07:15:30.661Z,78.44
2023-05-21T07:16:30.635Z,78.62
2023-05-21T07:17:30.666Z,90.45
2023-05-21T07:18:30.526Z,94.13
2023-05-21T07:19:30.463Z,85.63
2023-05-21T07:20:30.360Z,81.22
2023-05-21T07:21:30.305Z,78.77
2023-05-21T07:22:30.227Z,70.74
2023-05-21T07:23:30.161Z,85.34
2023-05-21T07:24:30.134Z,80.22
2023-05-21T07:25:30.053Z,84.26
2023-05-21T07:26:29.973Z,78.07
2023-05-21T07:27:29.922Z,70.22
2023-05-21T07:28:29.866Z,65.93
2023-05-21T07:29:29.859Z,71.06
2023-05-21T07:30:29.863Z,76.86
2023-05-21T07:31:29.903Z,87.17
2023-05-21T07:32:29.890Z,84.25
2023-05-21T07:33:29.864Z,72.18
2023-05-21T07:34:29.765Z,80.98
2023-05-21T07:35:29.737Z,99.88
2023-05-21T07:36:29.728Z,95.29
2023-05-21T07:37:29.698Z,87.33
2023-05-21T07:38:29.609Z,77.83
2023-05-21T07:39:29.576Z,88.17
2023-05-21T07:40:29.580Z,90.12
2023-05-21T07:41:29.522Z,103.83
2023-05-21T07:42:29.456Z,113.91
2023-05-21T07:43:29.415Z,115.19
2023-05-21T07:44:29.345Z,111.86
2023-05-21T07:45:29.340Z,102.38
2023-05-21T07:46:29.316Z,95.56
2023-05-21T07:47:29.236Z,95.37
2023-05-21T07:48:30.102Z,102.18
2023-05-21T07:49:29.116Z,104.10
2023-05-21T07:50:29.047Z,115.32
2023-05-21T07:51:29.051Z,114.70
2023-05-21T07:52:28.977Z,102.29
2023-05-21T07:53:28.874Z,92.18
2023-05-21T07:54:28.848Z,78.67
2023-05-21T07:55:28.817Z,84.55
2023-05-21T07:56:28.761Z,98.69
2023-05-21T07:57:28.679Z,97.77
2023-05-21T07:58:28.619Z,104.59
2023-05-21T07:59:28.576Z,115.53
2023-05-21T08:00:28.544Z,100.60
2023-05-21T08:01:28.469Z,94.96
2023-05-21T08:02:28.466Z,95.95
2023-05-21T08:03:28.559Z,113.68
2023-05-21T08:04:28.460Z,119.32
2023-05-21T08:05:28.218Z,120.69
2023-05-21T08:06:28.117Z,104.97
2023-05-21T08:07:28.052Z,100.16
2023-05-21T08:08:28.016Z,100.90
2023-05-21T08:09:27.948Z,109.37
2023-05-21T08:10:27.884Z,111.93
2023-05-21T08:11:27.827Z,119.83
2023-05-21T08:12:27.784Z,122.59
2023-05-21T08:13:27.725Z,122.72
2023-05-21T08:14:27.710Z,118.29
2023-05-21T08:15:27.655Z,118.74
2023-05-21T08:16:27.688Z,108.33
2023-05-21T08:17:27.567Z,113.06
2023-05-21T08:18:27.453Z,113.31
2023-05-21T08:19:27.495Z,106.83
2023-05-21T08:20:27.354Z,104.26
2023-05-21T08:21:27.302Z,122.86
2023-05-21T08:22:27.248Z,119.65
2023-05-21T08:23:27.171Z,122.87
2023-05-21T08:24:27.123Z,128.05
2023-05-21T08:25:27.064Z,134.65
2023-05-21T08:26:26.984Z,117.20
2023-05-21T08:27:26.944Z,107.28
2023-05-21T08:28:26.895Z,111.52
2023-05-21T08:29:26.890Z,111.93
2023-05-21T08:30:26.841Z,110.01
2023-05-21T08:31:26.772Z,107.13
2023-05-21T08:32:26.773Z,111.93
2023-05-21T08:33:26.690Z,116.37
2023-05-21T08:34:26.644Z,122.58
2023-05-21T08:35:26.535Z,115.03
2023-05-21T08:36:26.453Z,120.33
2023-05-21T08:37:26.352Z,121.26
2023-05-21T08:38:28.060Z,111.48
2023-05-21T08:39:26.184Z,108.60
2023-05-21T08:40:26.114Z,93.89
2023-05-21T08:41:26.065Z,96.99
2023-05-21T08:42:36.290Z,98.33
2023-05-21T08:43:26.850Z,98.60
2023-05-21T08:44:26.611Z,98.53
2023-05-21T08:45:25.755Z,91.79
2023-05-21T08:46:25.697Z,73.37
2023-05-21T08:47:25.641Z,71.92
2023-05-21T08:48:25.546Z,83.64
2023-05-21T08:49:27.147Z,79.67
2023-05-21T08:50:25.384Z,78.39
2023-05-21T08:51:25.306Z,85.62
2023-05-21T08:52:25.210Z,86.01
2023-05-21T08:53:28.816Z,89.70
2023-05-21T08:54:25.047Z,89.31
2023-05-21T08:55:25.012Z,90.16
2023-05-21T08:56:24.901Z,92.64
2023-05-21T08:57:24.825Z,91.04
2023-05-21T08:58:24.742Z,93.51
2023-05-21T08:59:24.709Z,76.75
2023-05-21T09:00:24.601Z,79.10
2023-05-21T09:01:26.507Z,90.54
2023-05-21T09:02:24.505Z,98.72
2023-05-21T09:03:24.500Z,87.43
2023-05-21T09:04:24.388Z,79.60
2023-05-21T09:05:24.262Z,97.00
2023-05-21T09:06:24.221Z,103.25
2023-05-21T09:07:24.139Z,115.02
2023-05-21T09:08:24.090Z,91.14
2023-05-21T09:09:24.042Z,86.25
2023-05-21T09:10:24.018Z,86.94
2023-05-21T09:11:23.982Z,88.46
2023-05-21T09:12:23.924Z,84.87
2023-05-21T09:13:23.907Z,87.51
2023-05-21T09:14:23.874Z,86.22
2023-05-21T09:15:23.970Z,106.05
2023-05-21T09:16:23.787Z,104.28
2023-05-21T09:17:23.758Z,103.19
2023-05-21T09:18:23.710Z,103.80
2023-05-21T09:19:23.680Z,91.85
2023-05-21T09:20:23.591Z,110.55
2023-05-21T09:21:23.595Z,110.61
2023-05-21T09:22:23.521Z,96.91
2023-05-21T09:23:23.482Z,82.14
2023-05-21T09:24:23.468Z,89.76
2023-05-21T09:25:23.429Z,66.80
2023-05-21T09:26:23.322Z,56.20
2023-05-21T09:27:23.285Z,64.20
2023-05-21T09:28:23.237Z,69.50
2023-05-21T09:29:23.188Z,80.92
2023-05-21T09:30:26.797Z,91.69
2023-05-21T09:31:24.142Z,91.76
2023-05-21T09:32:23.022Z,93.25
2023-05-21T09:33:22.925Z,94.47
2023-05-21T09:34:22.825Z,102.27
2023-05-21T09:35:22.759Z,106.25
2023-05-21T09:36:22.705Z,81.70
2023-05-21T09:37:27.655Z,92.10
2023-05-21T09:38:23.595Z,82.49
2023-05-21T09:39:22.500Z,79.89
2023-05-21T09:40:22.431Z,63.06
2023-05-21T09:41:22.561Z,74.96
2023-05-21T09:42:22.287Z,77.03
2023-05-21T09:43:22.202Z,79.53
2023-05-21T09:44:22.146Z,73.59
2023-05-21T09:45:22.008Z,80.97
2023-05-21T09:46:22.007Z,86.19
2023-05-21T09:47:21.897Z,96.08
2023-05-21T09:48:21.741Z,90.36
2023-05-21T09:49:21.666Z,93.14
2023-05-21T09:50:21.581Z,82.61
2023-05-21T09:51:21.483Z,86.24
2023-05-21T09:52:21.451Z,89.57
2023-05-21T09:53:21.422Z,76.55
2023-05-21T09:54:21.374Z,68.19
2023-05-21T09:55:21.286Z,81.34
2023-05-21T09:56:21.222Z,83.40
2023-05-21T09:57:21.125Z,84.13
2023-05-21T09:58:21.019Z,80.19
2023-05-21T09:59:20.922Z,85.45
2023-05-21T10:00:20.824Z,89.55
2023-05-21T10:01:20.733Z,84.62
2023-05-21T10:02:20.653Z,97.87
2023-05-21T10:03:20.599Z,79.54
2023-05-21T10:04:20.414Z,85.45
2023-05-21T10:05:20.255Z,85.50
2023-05-21T10:06:20.108Z,87.32
2023-05-21T10:07:20.014Z,88.63
2023-05-21T10:08:19.913Z,94.24
2023-05-21T10:09:19.774Z,77.76
2023-05-21T10:10:19.605Z,72.91
2023-05-21T10:11:19.505Z,77.93
2023-05-21T10:12:19.371Z,65.96
2023-05-21T10:13:19.250Z,65.19
2023-05-21T10:14:19.115Z,65.59
2023-05-21T10:15:18.967Z,59.91
2023-05-21T10:16:18.923Z,46.81
2023-05-21T10:17:18.755Z,58.32
2023-05-21T10:18:18.632Z,57.19
2023-05-21T10:19:18.501Z,65.42
2023-05-21T10:20:18.372Z,68.95
2023-05-21T10:21:18.267Z,69.57
2023-05-21T10:22:18.170Z,75.14
2023-05-21T10:23:18.060Z,84.44
2023-05-21T10:24:17.973Z,83.45
2023-05-21T10:25:17.857Z,91.10
2023-05-21T10:26:17.761Z,100.98
2023-05-21T10:27:17.670Z,138.00
2023-05-21T10:28:17.520Z,122.02
2023-05-21T10:29:19.413Z,114.55
2023-05-21T10:30:17.327Z,115.11
2023-05-21T10:31:17.188Z,112.22
2023-05-21T10:32:17.162Z,90.81
2023-05-21T10:33:17.032Z,89.73
2023-05-21T10:34:16.829Z,107.18
2023-05-21T10:35:16.685Z,90.74
2023-05-21T10:36:16.561Z,81.68
2023-05-21T10:37:16.401Z,93.51
2023-05-21T10:38:16.250Z,82.95
2023-05-21T10:39:16.117Z,68.00
2023-05-21T10:40:16.006Z,93.39
2023-05-21T10:41:15.871Z,83.42
2023-05-21T10:42:15.741Z,87.36
2023-05-21T10:43:15.639Z,92.10
2023-05-21T10:44:15.533Z,111.76
2023-05-21T10:45:15.435Z,118.55
2023-05-21T10:46:15.453Z,117.82
2023-05-21T10:47:15.267Z,116.52
2023-05-21T10:48:15.227Z,130.29
2023-05-21T10:49:15.135Z,112.31
2023-05-21T10:50:15.160Z,93.66
2023-05-21T10:51:15.006Z,72.93
2023-05-21T10:52:14.941Z,59.15
2023-05-21T10:53:14.842Z,67.03
2023-05-21T10:54:14.767Z,83.18
2023-05-21T10:55:14.669Z,88.67
2023-05-21T10:56:14.600Z,91.56
2023-05-21T10:57:14.509Z,67.46
2023-05-21T10:58:14.402Z,70.54
2023-05-21T10:59:14.297Z,86.54
2023-05-21T11:00:14.342Z,88.49
2023-05-21T11:01:14.172Z,166.54
2023-05-21T11:02:14.059Z,143.95
2023-05-21T11:03:14.075Z,120.33
2023-05-21T11:04:13.902Z,109.40
2023-05-21T11:05:13.797Z,111.08
2023-05-21T11:06:13.700Z,117.34
2023-05-21T11:07:13.631Z,107.16
2023-05-21T11:08:13.528Z,89.51
2023-05-21T11:09:13.462Z,75.85
2023-05-21T11:10:13.432Z,73.16
2023-05-21T11:11:13.430Z,94.98
2023-05-21T11:12:13.366Z,92.87
2023-05-21T11:13:13.297Z,87.57
2023-05-21T11:14:13.239Z,97.32
2023-05-21T11:15:13.195Z,100.23
2023-05-21T11:16:13.210Z,111.66
2023-05-21T11:17:13.147Z,97.35
2023-05-21T11:18:13.716Z,80.77
2023-05-21T11:19:12.932Z,128.00
2023-05-21T11:20:12.798Z,196.04
2023-05-21T11:21:12.695Z,150.90
2023-05-21T11:22:12.605Z,128.23
2023-05-21T11:23:12.534Z,103.04
2023-05-21T11:24:12.435Z,109.88
2023-05-21T11:25:12.394Z,155.75
2023-05-21T11:26:12.273Z,136.90
2023-05-21T11:27:12.163Z,151.23
2023-05-21T11:28:12.085Z,151.07
2023-05-21T11:29:11.991Z,171.08
2023-05-21T11:30:11.931Z,153.63
2023-05-21T11:31:11.898Z,132.42
2023-05-21T11:32:11.726Z,94.58
2023-05-21T11:33:11.680Z,116.42
2023-05-21T11:34:11.567Z,126.11
2023-05-21T11:35:11.470Z,126.77
2023-05-21T11:36:11.437Z,116.42
2023-05-21T11:37:11.307Z,107.04
2023-05-21T11:38:11.272Z,120.89
2023-05-21T11:39:11.201Z,131.72
2023-05-21T11:40:11.126Z,142.92
2023-05-21T11:42:30.431Z,25.00
2023-05-21T11:43:30.408Z,25.00
2023-05-21T11:44:30.356Z,25.00
2023-05-21T11:45:30.336Z,25.00
2023-05-21T11:46:30.349Z,25.00
2023-05-21T11:47:30.357Z,152.24
2023-05-21T11:48:32.421Z,255.30
2023-05-21T11:49:30.248Z,57.37
2023-05-21T11:50:30.351Z,77.00
2023-05-21T11:51:30.280Z,27.50
2023-05-21T11:52:30.328Z,0.00
2023-05-21T11:53:30.324Z,75.04
2023-05-21T11:54:30.358Z,92.91
2023-05-21T11:55:30.370Z,0.00
2023-05-21T11:56:30.390Z,0.00
2023-05-21T11:57:30.427Z,0.00
2023-05-21T11:58:30.391Z,0.00
2023-05-21T11:59:30.397Z,32.79
2023-05-21T12:00:30.367Z,71.34
2023-05-21T12:01:30.396Z,134.16
2023-05-21T12:02:30.511Z,148.24
2023-05-21T12:03:30.636Z,170.52
2023-05-21T12:04:30.508Z,160.11
2023-05-21T12:05:30.479Z,195.43
2023-05-21T12:06:30.543Z,90.66
2023-05-21T12:07:30.618Z,115.40
2023-05-21T12:08:30.511Z,80.55
2023-05-21T12:09:30.544Z,130.49
2023-05-21T12:10:30.535Z,86.80
2023-05-21T12:11:30.527Z,105.90
2023-05-21T12:12:41.796Z,180.64
2023-05-21T12:13:31.474Z,118.38
2023-05-21T12:14:30.493Z,0.00
2023-05-21T12:15:30.389Z,0.00
2023-05-21T12:16:30.379Z,13.43
2023-05-21T12:17:30.265Z,71.94
2023-05-21T12:18:30.151Z,103.78
2023-05-21T12:19:30.991Z,108.59
2023-05-21T12:20:30.006Z,37.97
2023-05-21T12:21:30.352Z,45.86
2023-05-21T12:22:29.897Z,85.40
2023-05-21T12:23:29.824Z,62.49
2023-05-21T12:24:29.773Z,86.95
2023-05-21T12:25:29.726Z,150.80
2023-05-21T12:26:29.709Z,343.87
2023-05-21T12:27:29.694Z,348.51
2023-05-21T12:28:29.642Z,216.15
2023-05-21T12:29:29.667Z,150.79
2023-05-21T12:30:29.663Z,153.43
2023-05-21T12:31:29.844Z,146.01
2023-05-21T12:32:29.704Z,0.00
2023-05-21T12:33:29.637Z,0.00
2023-05-21T12:34:29.585Z,26.30
2023-05-21T12:35:29.608Z,37.72
2023-05-21T12:36:29.570Z,73.12
2023-05-21T12:37:29.553Z,126.98
2023-05-21T12:38:29.559Z,137.30
2023-05-21T12:39:29.494Z,101.63
2023-05-21T12:40:29.549Z,119.36
2023-05-21T12:41:29.504Z,103.42